sensor_id;sensor_type;location;lat;lon;timestamp;temperature;humidity
74458;SHT31;62896;51.032;3.712;2023-12-20T00:01:49;6.4;95
74458;SHT31;62896;51.032;3.712;2023-12-20T00:05:09;6.4;95
74458;SHT31;62896;51.032;3.712;2023-12-20T00:08:29;6.4;95
74458;SHT31;62896;51.032;3.712;2023-12-20T00:11:49;6.3;96
74458;SHT31;62896;51.032;3.712;2023-12-20T00:15:09;6.3;96
74458;SHT31;62896;51.032;3.712;2023-12-20T00:18:29;6.3;96
74458;SHT31;62896;51.032;3.712;2023-12-20T00:21:49;6.2;96
74458;SHT31;62896;51.032;3.712;2023-12-20T00:25:09;6.2;96
74458;SHT31;62896;51.032;3.712;2023-12-20T00:28:29;6.2;96
74458;SHT31;62896;51.032;3.712;2023-12-20T00:31:49;6.2;96
74458;SHT31;62896;51.032;3.712;2023-12-20T00:35:09;6.2;96
74458;SHT31;62896;51.032;3.712;2023-12-20T00:38:29;6.2;96
74458;SHT31;62896;51.032;3.712;2023-12-20T00:41:49;6.2;97
74458;SHT31;62896;51.032;3.712;2023-12-20T00:45:09;6.2;97
74458;SHT31;62896;51.032;3.712;2023-12-20T00:48:29;6.2;97
74458;SHT31;62896;51.032;3.712;2023-12-20T00:51:49;6.2;97
74458;SHT31;62896;51.032;3.712;2023-12-20T00:55:09;6.2;97
74458;SHT31;62896;51.032;3.712;2023-12-20T00:58:29;6.2;97
74458;SHT31;62896;51.032;3.712;2023-12-20T01:01:49;6.1;97
74458;SHT31;62896;51.032;3.712;2023-12-20T01:05:09;6.1;97
74458;SHT31;62896;51.032;3.712;2023-12-20T01:08:29;6.1;97
74458;SHT31;62896;51.032;3.712;2023-12-20T01:11:49;6.2;97
74458;SHT31;62896;51.032;3.712;2023-12-20T01:15:09;6.2;97
74458;SHT31;62896;51.032;3.712;2023-12-20T01:18:29;6.2;97
74458;SHT31;62896;51.032;3.712;2023-12-20T01:21:49;6.2;97
74458;SHT31;62896;51.032;3.712;2023-12-20T01:25:09;6.2;97
74458;SHT31;62896;51.032;3.712;2023-12-20T01:28:29;6.2;97
74458;SHT31;62896;51.032;3.712;2023-12-20T01:31:49;6.4;96
74458;SHT31;62896;51.032;3.712;2023-12-20T01:35:09;6.4;96
74458;SHT31;62896;51.032;3.712;2023-12-20T01:38:29;6.4;96
74458;SHT31;62896;51.032;3.712;2023-12-20T01:41:49;6.4;95
74458;SHT31;62896;51.032;3.712;2023-12-20T01:45:09;6.4;95
74458;SHT31;62896;51.032;3.712;2023-12-20T01:48:29;6.4;95
74458;SHT31;62896;51.032;3.712;2023-12-20T01:51:49;6.4;95
74458;SHT31;62896;51.032;3.712;2023-12-20T01:55:09;6.4;95
74458;SHT31;62896;51.032;3.712;2023-12-20T01:58:29;6.4;95
74458;SHT31;62896;51.032;3.712;2023-12-20T02:01:49;6.5;95
74458;SHT31;62896;51.032;3.712;2023-12-20T02:05:09;6.5;95
74458;SHT31;62896;51.032;3.712;2023-12-20T02:08:29;6.5;95
74458;SHT31;62896;51.032;3.712;2023-12-20T02:11:49;6.4;95
74458;SHT31;62896;51.032;3.712;2023-12-20T02:15:09;6.4;95
74458;SHT31;62896;51.032;3.712;2023-12-20T02:18:29;6.4;95
74458;SHT31;62896;51.032;3.712;2023-12-20T02:21:49;6.5;95
74458;SHT31;62896;51.032;3.712;2023-12-20T02:25:09;6.5;95
74458;SHT31;62896;51.032;3.712;2023-12-20T02:28:29;6.5;95
74458;SHT31;62896;51.032;3.712;2023-12-20T02:31:49;6.6;95
74458;SHT31;62896;51.032;3.712;2023-12-20T02:35:09;6.6;95
74458;SHT31;62896;51.032;3.712;2023-12-20T02:38:29;6.6;95
74458;SHT31;62896;51.032;3.712;2023-12-20T02:41:49;6.7;95
74458;SHT31;62896;51.032;3.712;2023-12-20T02:45:09;6.7;95
74458;SHT31;62896;51.032;3.712;2023-12-20T02:48:29;6.7;95
74458;SHT31;62896;51.032;3.712;2023-12-20T02:51:49;6.7;95
74458;SHT31;62896;51.032;3.712;2023-12-20T02:55:09;6.7;95
74458;SHT31;62896;51.032;3.712;2023-12-20T02:58:29;6.7;95
74458;SHT31;62896;51.032;3.712;2023-12-20T03:01:49;6.8;95
74458;SHT31;62896;51.032;3.712;2023-12-20T03:05:09;6.8;95
74458;SHT31;62896;51.032;3.712;2023-12-20T03:08:29;6.8;95
74458;SHT31;62896;51.032;3.712;2023-12-20T03:11:49;6.7;95
74458;SHT31;62896;51.032;3.712;2023-12-20T03:15:09;6.7;95
74458;SHT31;62896;51.032;3.712;2023-12-20T03:18:29;6.7;95
74458;SHT31;62896;51.032;3.712;2023-12-20T03:21:49;6.7;95
74458;SHT31;62896;51.032;3.712;2023-12-20T03:25:09;6.7;95
74458;SHT31;62896;51.032;3.712;2023-12-20T03:28:29;6.7;95
74458;SHT31;62896;51.032;3.712;2023-12-20T03:31:49;6.6;95
74458;SHT31;62896;51.032;3.712;2023-12-20T03:35:09;6.6;95
74458;SHT31;62896;51.032;3.712;2023-12-20T03:38:29;6.6;95
74458;SHT31;62896;51.032;3.712;2023-12-20T03:41:49;6.5;96
74458;SHT31;62896;51.032;3.712;2023-12-20T03:45:09;6.5;96
74458;SHT31;62896;51.032;3.712;2023-12-20T03:48:29;6.5;96
74458;SHT31;62896;51.032;3.712;2023-12-20T03:51:49;6.5;96
74458;SHT31;62896;51.032;3.712;2023-12-20T03:55:09;6.5;96
74458;SHT31;62896;51.032;3.712;2023-12-20T03:58:29;6.5;96
74458;SHT31;62896;51.032;3.712;2023-12-20T04:01:49;6.4;95
74458;SHT31;62896;51.032;3.712;2023-12-20T04:05:09;6.4;95
74458;SHT31;62896;51.032;3.712;2023-12-20T04:08:29;6.4;95
74458;SHT31;62896;51.032;3.712;2023-12-20T04:11:49;6.4;95
74458;SHT31;62896;51.032;3.712;2023-12-20T04:15:09;6.4;95
74458;SHT31;62896;51.032;3.712;2023-12-20T04:18:29;6.4;95
74458;SHT31;62896;51.032;3.712;2023-12-20T04:21:49;6.4;95
74458;SHT31;62896;51.032;3.712;2023-12-20T04:25:09;6.4;95
74458;SHT31;62896;51.032;3.712;2023-12-20T04:28:29;6.4;95
74458;SHT31;62896;51.032;3.712;2023-12-20T04:31:49;6.4;95
74458;SHT31;62896;51.032;3.712;2023-12-20T04:35:09;6.4;95
74458;SHT31;62896;51.032;3.712;2023-12-20T04:38:29;6.4;95
74458;SHT31;62896;51.032;3.712;2023-12-20T04:41:49;6.4;95
74458;SHT31;62896;51.032;3.712;2023-12-20T04:45:09;6.4;95
74458;SHT31;62896;51.032;3.712;2023-12-20T04:48:29;6.4;95
74458;SHT31;62896;51.032;3.712;2023-12-20T04:51:49;6.2;95
74458;SHT31;62896;51.032;3.712;2023-12-20T04:55:09;6.2;95
74458;SHT31;62896;51.032;3.712;2023-12-20T04:58:29;6.2;95
74458;SHT31;62896;51.032;3.712;2023-12-20T05:01:49;5.9;95
74458;SHT31;62896;51.032;3.712;2023-12-20T05:05:09;5.9;95
74458;SHT31;62896;51.032;3.712;2023-12-20T05:08:29;5.9;95
74458;SHT31;62896;51.032;3.712;2023-12-20T05:11:49;5.7;96
74458;SHT31;62896;51.032;3.712;2023-12-20T05:15:09;5.7;96
74458;SHT31;62896;51.032;3.712;2023-12-20T05:18:29;5.7;96
74458;SHT31;62896;51.032;3.712;2023-12-20T05:21:49;5.7;97
74458;SHT31;62896;51.032;3.712;2023-12-20T05:25:09;5.7;97
74458;SHT31;62896;51.032;3.712;2023-12-20T05:28:29;5.7;97
74458;SHT31;62896;51.032;3.712;2023-12-20T05:31:49;5.8;96
74458;SHT31;62896;51.032;3.712;2023-12-20T05:35:09;5.8;96
74458;SHT31;62896;51.032;3.712;2023-12-20T05:38:29;5.8;96
74458;SHT31;62896;51.032;3.712;2023-12-20T05:41:49;5.8;96
74458;SHT31;62896;51.032;3.712;2023-12-20T05:45:09;5.8;96
74458;SHT31;62896;51.032;3.712;2023-12-20T05:48:29;5.8;96
74458;SHT31;62896;51.032;3.712;2023-12-20T05:51:49;5.9;96
74458;SHT31;62896;51.032;3.712;2023-12-20T05:55:09;5.9;96
74458;SHT31;62896;51.032;3.712;2023-12-20T05:58:29;5.9;96
74458;SHT31;62896;51.032;3.712;2023-12-20T06:01:49;6;95
74458;SHT31;62896;51.032;3.712;2023-12-20T06:05:09;6;95
74458;SHT31;62896;51.032;3.712;2023-12-20T06:08:29;6;95
74458;SHT31;62896;51.032;3.712;2023-12-20T06:11:49;5.9;95
74458;SHT31;62896;51.032;3.712;2023-12-20T06:15:09;5.9;95
74458;SHT31;62896;51.032;3.712;2023-12-20T06:18:29;5.9;95
74458;SHT31;62896;51.032;3.712;2023-12-20T06:21:49;5.8;95
74458;SHT31;62896;51.032;3.712;2023-12-20T06:25:09;5.8;95
74458;SHT31;62896;51.032;3.712;2023-12-20T06:28:29;5.8;95
74458;SHT31;62896;51.032;3.712;2023-12-20T06:31:49;5.7;95
74458;SHT31;62896;51.032;3.712;2023-12-20T06:35:09;5.7;95
74458;SHT31;62896;51.032;3.712;2023-12-20T06:38:29;5.7;95
74458;SHT31;62896;51.032;3.712;2023-12-20T06:41:49;5.7;95
74458;SHT31;62896;51.032;3.712;2023-12-20T06:45:10;5.7;95
74458;SHT31;62896;51.032;3.712;2023-12-20T06:48:29;5.7;95
74458;SHT31;62896;51.032;3.712;2023-12-20T06:51:49;5.6;95
74458;SHT31;62896;51.032;3.712;2023-12-20T06:55:09;5.6;95
74458;SHT31;62896;51.032;3.712;2023-12-20T06:58:29;5.6;95
74458;SHT31;62896;51.032;3.712;2023-12-20T07:01:49;5.6;95
74458;SHT31;62896;51.032;3.712;2023-12-20T07:05:09;5.6;95
74458;SHT31;62896;51.032;3.712;2023-12-20T07:08:29;5.6;95
74458;SHT31;62896;51.032;3.712;2023-12-20T07:11:49;5.5;96
74458;SHT31;62896;51.032;3.712;2023-12-20T07:15:10;5.5;96
74458;SHT31;62896;51.032;3.712;2023-12-20T07:18:29;5.5;96
74458;SHT31;62896;51.032;3.712;2023-12-20T07:21:49;5.5;96
74458;SHT31;62896;51.032;3.712;2023-12-20T07:25:09;5.5;96
74458;SHT31;62896;51.032;3.712;2023-12-20T07:28:29;5.5;96
74458;SHT31;62896;51.032;3.712;2023-12-20T07:31:49;5.5;96
74458;SHT31;62896;51.032;3.712;2023-12-20T07:35:09;5.5;96
74458;SHT31;62896;51.032;3.712;2023-12-20T07:38:29;5.5;96
74458;SHT31;62896;51.032;3.712;2023-12-20T07:41:49;5.4;96
74458;SHT31;62896;51.032;3.712;2023-12-20T07:45:09;5.4;96
74458;SHT31;62896;51.032;3.712;2023-12-20T07:48:29;5.4;96
74458;SHT31;62896;51.032;3.712;2023-12-20T07:51:49;5.4;96
74458;SHT31;62896;51.032;3.712;2023-12-20T07:55:09;5.4;96
74458;SHT31;62896;51.032;3.712;2023-12-20T07:58:29;5.4;96
74458;SHT31;62896;51.032;3.712;2023-12-20T08:01:49;5.4;96
74458;SHT31;62896;51.032;3.712;2023-12-20T08:05:09;5.4;96
74458;SHT31;62896;51.032;3.712;2023-12-20T08:08:30;5.4;96
74458;SHT31;62896;51.032;3.712;2023-12-20T08:11:49;5.4;96
74458;SHT31;62896;51.032;3.712;2023-12-20T08:15:09;5.4;96
74458;SHT31;62896;51.032;3.712;2023-12-20T08:18:29;5.4;96
74458;SHT31;62896;51.032;3.712;2023-12-20T08:21:49;5.3;96
74458;SHT31;62896;51.032;3.712;2023-12-20T08:25:09;5.3;96
74458;SHT31;62896;51.032;3.712;2023-12-20T08:28:29;5.3;96
74458;SHT31;62896;51.032;3.712;2023-12-20T08:31:51;5.3;96
74458;SHT31;62896;51.032;3.712;2023-12-20T08:35:09;5.3;96
74458;SHT31;62896;51.032;3.712;2023-12-20T08:38:29;5.3;96
74458;SHT31;62896;51.032;3.712;2023-12-20T08:41:49;5.4;96
74458;SHT31;62896;51.032;3.712;2023-12-20T08:45:09;5.4;96
74458;SHT31;62896;51.032;3.712;2023-12-20T08:48:29;5.4;96
74458;SHT31;62896;51.032;3.712;2023-12-20T08:51:49;5.5;96
74458;SHT31;62896;51.032;3.712;2023-12-20T08:55:09;5.5;96
74458;SHT31;62896;51.032;3.712;2023-12-20T08:58:30;5.5;96
74458;SHT31;62896;51.032;3.712;2023-12-20T09:01:49;5.8;95
74458;SHT31;62896;51.032;3.712;2023-12-20T09:05:09;5.8;95
74458;SHT31;62896;51.032;3.712;2023-12-20T09:08:29;5.8;95
74458;SHT31;62896;51.032;3.712;2023-12-20T09:11:49;6.1;94
74458;SHT31;62896;51.032;3.712;2023-12-20T09:15:09;6.1;94
74458;SHT31;62896;51.032;3.712;2023-12-20T09:18:30;6.1;94
74458;SHT31;62896;51.032;3.712;2023-12-20T09:21:49;6.2;94
74458;SHT31;62896;51.032;3.712;2023-12-20T09:25:10;6.2;94
74458;SHT31;62896;51.032;3.712;2023-12-20T09:28:29;6.2;94
74458;SHT31;62896;51.032;3.712;2023-12-20T09:31:50;6.2;94
74458;SHT31;62896;51.032;3.712;2023-12-20T09:35:10;6.2;94
74458;SHT31;62896;51.032;3.712;2023-12-20T09:38:29;6.2;94
74458;SHT31;62896;51.032;3.712;2023-12-20T09:41:51;6.5;94
74458;SHT31;62896;51.032;3.712;2023-12-20T09:45:09;6.5;94
74458;SHT31;62896;51.032;3.712;2023-12-20T09:48:29;6.5;94
74458;SHT31;62896;51.032;3.712;2023-12-20T09:51:50;7;93
74458;SHT31;62896;51.032;3.712;2023-12-20T09:55:09;7;93
74458;SHT31;62896;51.032;3.712;2023-12-20T09:58:30;7;93
74458;SHT31;62896;51.032;3.712;2023-12-20T10:01:50;7.2;92
74458;SHT31;62896;51.032;3.712;2023-12-20T10:05:10;7.2;92
74458;SHT31;62896;51.032;3.712;2023-12-20T10:08:30;7.2;92
74458;SHT31;62896;51.032;3.712;2023-12-20T10:11:50;7.4;91
74458;SHT31;62896;51.032;3.712;2023-12-20T10:15:10;7.4;91
74458;SHT31;62896;51.032;3.712;2023-12-20T10:18:30;7.4;91
74458;SHT31;62896;51.032;3.712;2023-12-20T10:21:50;7.4;91
74458;SHT31;62896;51.032;3.712;2023-12-20T10:25:10;7.4;91
74458;SHT31;62896;51.032;3.712;2023-12-20T10:28:32;7.4;91
74458;SHT31;62896;51.032;3.712;2023-12-20T10:31:50;7.6;91
74458;SHT31;62896;51.032;3.712;2023-12-20T10:35:10;7.6;91
74458;SHT31;62896;51.032;3.712;2023-12-20T10:38:30;7.6;91
74458;SHT31;62896;51.032;3.712;2023-12-20T10:41:50;7.6;91
74458;SHT31;62896;51.032;3.712;2023-12-20T10:45:10;7.6;91
74458;SHT31;62896;51.032;3.712;2023-12-20T10:48:30;7.6;91
74458;SHT31;62896;51.032;3.712;2023-12-20T10:51:50;7.7;91
74458;SHT31;62896;51.032;3.712;2023-12-20T10:55:10;7.7;91
74458;SHT31;62896;51.032;3.712;2023-12-20T10:58:30;7.7;91
74458;SHT31;62896;51.032;3.712;2023-12-20T11:01:50;7.8;91
74458;SHT31;62896;51.032;3.712;2023-12-20T11:05:10;7.8;91
74458;SHT31;62896;51.032;3.712;2023-12-20T11:08:32;7.8;91
74458;SHT31;62896;51.032;3.712;2023-12-20T11:11:54;8;91
74458;SHT31;62896;51.032;3.712;2023-12-20T11:15:10;8;91
74458;SHT31;62896;51.032;3.712;2023-12-20T11:18:30;8;91
74458;SHT31;62896;51.032;3.712;2023-12-20T11:21:50;8.2;90
74458;SHT31;62896;51.032;3.712;2023-12-20T11:25:10;8.2;90
74458;SHT31;62896;51.032;3.712;2023-12-20T11:28:30;8.2;90
74458;SHT31;62896;51.032;3.712;2023-12-20T11:31:50;8.4;90
74458;SHT31;62896;51.032;3.712;2023-12-20T11:35:17;8.4;90
74458;SHT31;62896;51.032;3.712;2023-12-20T11:38:35;8.4;90
74458;SHT31;62896;51.032;3.712;2023-12-20T11:41:50;8.6;89
74458;SHT31;62896;51.032;3.712;2023-12-20T11:45:10;8.6;89
74458;SHT31;62896;51.032;3.712;2023-12-20T11:48:30;8.6;89
74458;SHT31;62896;51.032;3.712;2023-12-20T11:51:50;8.7;89
74458;SHT31;62896;51.032;3.712;2023-12-20T11:55:10;8.7;89
74458;SHT31;62896;51.032;3.712;2023-12-20T11:58:30;8.7;89
74458;SHT31;62896;51.032;3.712;2023-12-20T12:01:50;8.7;89
74458;SHT31;62896;51.032;3.712;2023-12-20T12:05:10;8.7;89
74458;SHT31;62896;51.032;3.712;2023-12-20T12:08:30;8.7;89
74458;SHT31;62896;51.032;3.712;2023-12-20T12:11:50;8.7;90
74458;SHT31;62896;51.032;3.712;2023-12-20T12:15:10;8.7;90
74458;SHT31;62896;51.032;3.712;2023-12-20T12:18:30;8.7;90
74458;SHT31;62896;51.032;3.712;2023-12-20T12:21:50;8.7;90
74458;SHT31;62896;51.032;3.712;2023-12-20T12:25:10;8.7;90
74458;SHT31;62896;51.032;3.712;2023-12-20T12:28:30;8.7;90
74458;SHT31;62896;51.032;3.712;2023-12-20T12:31:50;8.7;90
74458;SHT31;62896;51.032;3.712;2023-12-20T12:35:10;8.7;90
74458;SHT31;62896;51.032;3.712;2023-12-20T12:38:30;8.7;90
74458;SHT31;62896;51.032;3.712;2023-12-20T12:41:50;8.9;90
74458;SHT31;62896;51.032;3.712;2023-12-20T12:45:10;8.9;90
74458;SHT31;62896;51.032;3.712;2023-12-20T12:48:30;8.9;90
74458;SHT31;62896;51.032;3.712;2023-12-20T12:51:50;9.5;88
74458;SHT31;62896;51.032;3.712;2023-12-20T12:55:10;9.5;88
74458;SHT31;62896;51.032;3.712;2023-12-20T12:58:30;9.5;88
74458;SHT31;62896;51.032;3.712;2023-12-20T13:01:50;9.7;87
74458;SHT31;62896;51.032;3.712;2023-12-20T13:05:10;9.7;87
74458;SHT31;62896;51.032;3.712;2023-12-20T13:08:30;9.7;87
74458;SHT31;62896;51.032;3.712;2023-12-20T13:11:50;9.8;87
74458;SHT31;62896;51.032;3.712;2023-12-20T13:15:10;9.8;87
74458;SHT31;62896;51.032;3.712;2023-12-20T13:18:30;9.8;87
74458;SHT31;62896;51.032;3.712;2023-12-20T13:21:50;9.6;88
74458;SHT31;62896;51.032;3.712;2023-12-20T13:25:10;9.6;88
74458;SHT31;62896;51.032;3.712;2023-12-20T13:28:30;9.6;88
74458;SHT31;62896;51.032;3.712;2023-12-20T13:31:50;9.6;88
74458;SHT31;62896;51.032;3.712;2023-12-20T13:35:10;9.6;88
74458;SHT31;62896;51.032;3.712;2023-12-20T13:38:30;9.6;88
74458;SHT31;62896;51.032;3.712;2023-12-20T13:41:50;9.6;88
74458;SHT31;62896;51.032;3.712;2023-12-20T13:45:10;9.6;88
74458;SHT31;62896;51.032;3.712;2023-12-20T13:48:30;9.6;88
74458;SHT31;62896;51.032;3.712;2023-12-20T13:51:50;9.5;88
74458;SHT31;62896;51.032;3.712;2023-12-20T13:55:10;9.5;88
74458;SHT31;62896;51.032;3.712;2023-12-20T13:58:30;9.5;88
74458;SHT31;62896;51.032;3.712;2023-12-20T14:01:50;9.5;88
74458;SHT31;62896;51.032;3.712;2023-12-20T14:05:10;9.5;88
74458;SHT31;62896;51.032;3.712;2023-12-20T14:08:30;9.5;88
74458;SHT31;62896;51.032;3.712;2023-12-20T14:11:50;9.5;88
74458;SHT31;62896;51.032;3.712;2023-12-20T14:15:10;9.5;88
74458;SHT31;62896;51.032;3.712;2023-12-20T14:18:30;9.5;88
74458;SHT31;62896;51.032;3.712;2023-12-20T14:21:50;9.5;88
74458;SHT31;62896;51.032;3.712;2023-12-20T14:25:10;9.5;88
74458;SHT31;62896;51.032;3.712;2023-12-20T14:28:30;9.5;88
74458;SHT31;62896;51.032;3.712;2023-12-20T14:31:50;9.6;88
74458;SHT31;62896;51.032;3.712;2023-12-20T14:35:10;9.6;88
74458;SHT31;62896;51.032;3.712;2023-12-20T14:38:30;9.6;88
74458;SHT31;62896;51.032;3.712;2023-12-20T14:41:50;9.6;88
74458;SHT31;62896;51.032;3.712;2023-12-20T14:45:10;9.6;88
74458;SHT31;62896;51.032;3.712;2023-12-20T14:48:30;9.6;88
74458;SHT31;62896;51.032;3.712;2023-12-20T14:51:50;9.5;88
74458;SHT31;62896;51.032;3.712;2023-12-20T14:55:10;9.5;88
74458;SHT31;62896;51.032;3.712;2023-12-20T14:58:30;9.5;88
74458;SHT31;62896;51.032;3.712;2023-12-20T15:01:50;9.5;88
74458;SHT31;62896;51.032;3.712;2023-12-20T15:05:10;9.5;88
74458;SHT31;62896;51.032;3.712;2023-12-20T15:08:30;9.5;88
74458;SHT31;62896;51.032;3.712;2023-12-20T15:11:50;9.4;89
74458;SHT31;62896;51.032;3.712;2023-12-20T15:15:10;9.4;89
74458;SHT31;62896;51.032;3.712;2023-12-20T15:18:30;9.4;89
74458;SHT31;62896;51.032;3.712;2023-12-20T15:21:50;9.4;89
74458;SHT31;62896;51.032;3.712;2023-12-20T15:25:10;9.4;89
74458;SHT31;62896;51.032;3.712;2023-12-20T15:28:30;9.4;89
74458;SHT31;62896;51.032;3.712;2023-12-20T15:31:50;9.4;90
74458;SHT31;62896;51.032;3.712;2023-12-20T15:35:10;9.4;90
74458;SHT31;62896;51.032;3.712;2023-12-20T15:38:30;9.4;90
74458;SHT31;62896;51.032;3.712;2023-12-20T15:41:50;9.4;90
74458;SHT31;62896;51.032;3.712;2023-12-20T15:45:10;9.4;90
74458;SHT31;62896;51.032;3.712;2023-12-20T15:48:30;9.4;90
74458;SHT31;62896;51.032;3.712;2023-12-20T15:51:50;9.3;90
74458;SHT31;62896;51.032;3.712;2023-12-20T15:55:10;9.3;90
74458;SHT31;62896;51.032;3.712;2023-12-20T15:58:30;9.3;90
74458;SHT31;62896;51.032;3.712;2023-12-20T16:01:50;9.3;90
74458;SHT31;62896;51.032;3.712;2023-12-20T16:05:10;9.3;90
74458;SHT31;62896;51.032;3.712;2023-12-20T16:08:30;9.3;90
74458;SHT31;62896;51.032;3.712;2023-12-20T16:11:50;9.3;91
74458;SHT31;62896;51.032;3.712;2023-12-20T16:15:10;9.3;91
74458;SHT31;62896;51.032;3.712;2023-12-20T16:18:30;9.3;91
74458;SHT31;62896;51.032;3.712;2023-12-20T16:21:50;9.3;91
74458;SHT31;62896;51.032;3.712;2023-12-20T16:25:10;9.3;91
74458;SHT31;62896;51.032;3.712;2023-12-20T16:28:30;9.3;91
74458;SHT31;62896;51.032;3.712;2023-12-20T16:31:50;9.3;92
74458;SHT31;62896;51.032;3.712;2023-12-20T16:35:10;9.3;92
74458;SHT31;62896;51.032;3.712;2023-12-20T16:38:30;9.3;92
74458;SHT31;62896;51.032;3.712;2023-12-20T16:41:50;9.2;92
74458;SHT31;62896;51.032;3.712;2023-12-20T16:45:10;9.2;92
74458;SHT31;62896;51.032;3.712;2023-12-20T16:48:30;9.2;92
74458;SHT31;62896;51.032;3.712;2023-12-20T16:51:50;9.2;92
74458;SHT31;62896;51.032;3.712;2023-12-20T16:55:10;9.2;92
74458;SHT31;62896;51.032;3.712;2023-12-20T16:58:30;9.2;92
74458;SHT31;62896;51.032;3.712;2023-12-20T17:01:50;9.2;92
74458;SHT31;62896;51.032;3.712;2023-12-20T17:05:10;9.2;92
74458;SHT31;62896;51.032;3.712;2023-12-20T17:08:30;9.2;92
74458;SHT31;62896;51.032;3.712;2023-12-20T17:11:50;9.2;93
74458;SHT31;62896;51.032;3.712;2023-12-20T17:15:10;9.2;93
74458;SHT31;62896;51.032;3.712;2023-12-20T17:18:30;9.2;93
74458;SHT31;62896;51.032;3.712;2023-12-20T17:21:50;9.1;93
74458;SHT31;62896;51.032;3.712;2023-12-20T17:25:10;9.1;93
74458;SHT31;62896;51.032;3.712;2023-12-20T17:28:30;9.1;93
74458;SHT31;62896;51.032;3.712;2023-12-20T17:31:50;9.1;93
74458;SHT31;62896;51.032;3.712;2023-12-20T17:35:10;9.1;93
74458;SHT31;62896;51.032;3.712;2023-12-20T17:38:30;9.1;93
74458;SHT31;62896;51.032;3.712;2023-12-20T17:41:50;9.1;93
74458;SHT31;62896;51.032;3.712;2023-12-20T17:45:10;9.1;93
74458;SHT31;62896;51.032;3.712;2023-12-20T17:48:30;9.1;93
74458;SHT31;62896;51.032;3.712;2023-12-20T17:51:50;9.1;94
74458;SHT31;62896;51.032;3.712;2023-12-20T17:55:10;9.1;94
74458;SHT31;62896;51.032;3.712;2023-12-20T17:58:30;9.1;94
74458;SHT31;62896;51.032;3.712;2023-12-20T18:01:50;9.1;94
74458;SHT31;62896;51.032;3.712;2023-12-20T18:05:10;9.1;94
74458;SHT31;62896;51.032;3.712;2023-12-20T18:08:30;9.1;94
74458;SHT31;62896;51.032;3.712;2023-12-20T18:11:50;9.1;93
74458;SHT31;62896;51.032;3.712;2023-12-20T18:15:11;9.1;93
74458;SHT31;62896;51.032;3.712;2023-12-20T18:18:30;9.1;93
74458;SHT31;62896;51.032;3.712;2023-12-20T18:21:50;9;94
74458;SHT31;62896;51.032;3.712;2023-12-20T18:25:10;9;94
74458;SHT31;62896;51.032;3.712;2023-12-20T18:28:30;9;94
74458;SHT31;62896;51.032;3.712;2023-12-20T18:31:50;8.9;94
74458;SHT31;62896;51.032;3.712;2023-12-20T18:35:10;8.9;94
74458;SHT31;62896;51.032;3.712;2023-12-20T18:38:30;8.9;94
74458;SHT31;62896;51.032;3.712;2023-12-20T18:41:50;8.9;94
74458;SHT31;62896;51.032;3.712;2023-12-20T18:45:10;8.9;94
74458;SHT31;62896;51.032;3.712;2023-12-20T18:48:30;8.9;94
74458;SHT31;62896;51.032;3.712;2023-12-20T18:51:50;8.9;94
74458;SHT31;62896;51.032;3.712;2023-12-20T18:55:10;8.9;94
74458;SHT31;62896;51.032;3.712;2023-12-20T18:58:30;8.9;94
74458;SHT31;62896;51.032;3.712;2023-12-20T19:01:50;9.1;94
74458;SHT31;62896;51.032;3.712;2023-12-20T19:05:10;9.1;94
74458;SHT31;62896;51.032;3.712;2023-12-20T19:08:30;9.1;94
74458;SHT31;62896;51.032;3.712;2023-12-20T19:11:50;9.1;94
74458;SHT31;62896;51.032;3.712;2023-12-20T19:15:10;9.1;94
74458;SHT31;62896;51.032;3.712;2023-12-20T19:18:30;9.1;94
74458;SHT31;62896;51.032;3.712;2023-12-20T19:21:50;9.1;94
74458;SHT31;62896;51.032;3.712;2023-12-20T19:25:10;9.1;94
74458;SHT31;62896;51.032;3.712;2023-12-20T19:28:30;9.1;94
74458;SHT31;62896;51.032;3.712;2023-12-20T19:31:50;9.1;94
74458;SHT31;62896;51.032;3.712;2023-12-20T19:35:10;9.1;94
74458;SHT31;62896;51.032;3.712;2023-12-20T19:38:30;9.1;94
74458;SHT31;62896;51.032;3.712;2023-12-20T19:41:50;9.2;94
74458;SHT31;62896;51.032;3.712;2023-12-20T19:45:10;9.2;94
74458;SHT31;62896;51.032;3.712;2023-12-20T19:48:30;9.2;94
74458;SHT31;62896;51.032;3.712;2023-12-20T19:51:50;9.2;94
74458;SHT31;62896;51.032;3.712;2023-12-20T19:55:10;9.2;94
74458;SHT31;62896;51.032;3.712;2023-12-20T19:58:30;9.2;94
74458;SHT31;62896;51.032;3.712;2023-12-20T20:01:50;9.3;94
74458;SHT31;62896;51.032;3.712;2023-12-20T20:05:10;9.3;94
74458;SHT31;62896;51.032;3.712;2023-12-20T20:08:30;9.3;94
74458;SHT31;62896;51.032;3.712;2023-12-20T20:11:50;9.4;94
74458;SHT31;62896;51.032;3.712;2023-12-20T20:15:10;9.4;94
74458;SHT31;62896;51.032;3.712;2023-12-20T20:18:30;9.4;94
74458;SHT31;62896;51.032;3.712;2023-12-20T20:21:50;9.5;94
74458;SHT31;62896;51.032;3.712;2023-12-20T20:25:10;9.5;94
74458;SHT31;62896;51.032;3.712;2023-12-20T20:28:30;9.5;94
74458;SHT31;62896;51.032;3.712;2023-12-20T20:31:50;9.7;94
74458;SHT31;62896;51.032;3.712;2023-12-20T20:35:10;9.7;94
74458;SHT31;62896;51.032;3.712;2023-12-20T20:38:30;9.7;94
74458;SHT31;62896;51.032;3.712;2023-12-20T20:41:50;9.8;93
74458;SHT31;62896;51.032;3.712;2023-12-20T20:45:10;9.8;93
74458;SHT31;62896;51.032;3.712;2023-12-20T20:48:30;9.8;93
74458;SHT31;62896;51.032;3.712;2023-12-20T20:51:50;9.8;93
74458;SHT31;62896;51.032;3.712;2023-12-20T20:55:10;9.8;93
74458;SHT31;62896;51.032;3.712;2023-12-20T20:58:30;9.8;93
74458;SHT31;62896;51.032;3.712;2023-12-20T21:01:50;9.9;93
74458;SHT31;62896;51.032;3.712;2023-12-20T21:05:10;9.9;93
74458;SHT31;62896;51.032;3.712;2023-12-20T21:08:30;9.9;93
74458;SHT31;62896;51.032;3.712;2023-12-20T21:11:50;9.9;93
74458;SHT31;62896;51.032;3.712;2023-12-20T21:15:10;9.9;93
74458;SHT31;62896;51.032;3.712;2023-12-20T21:18:30;9.9;93
74458;SHT31;62896;51.032;3.712;2023-12-20T21:21:50;9.9;93
74458;SHT31;62896;51.032;3.712;2023-12-20T21:25:10;9.9;93
74458;SHT31;62896;51.032;3.712;2023-12-20T21:28:30;9.9;93
74458;SHT31;62896;51.032;3.712;2023-12-20T21:31:50;10;93
74458;SHT31;62896;51.032;3.712;2023-12-20T21:35:10;10;93
74458;SHT31;62896;51.032;3.712;2023-12-20T21:38:30;10;93
74458;SHT31;62896;51.032;3.712;2023-12-20T21:41:50;10.1;93
74458;SHT31;62896;51.032;3.712;2023-12-20T21:45:10;10.1;93
74458;SHT31;62896;51.032;3.712;2023-12-20T21:48:30;10.1;93
74458;SHT31;62896;51.032;3.712;2023-12-20T21:51:50;10.1;92
74458;SHT31;62896;51.032;3.712;2023-12-20T21:55:10;10.1;92
74458;SHT31;62896;51.032;3.712;2023-12-20T21:58:30;10.1;92
74458;SHT31;62896;51.032;3.712;2023-12-20T22:01:50;10.2;92
74458;SHT31;62896;51.032;3.712;2023-12-20T22:05:10;10.2;92
74458;SHT31;62896;51.032;3.712;2023-12-20T22:08:30;10.2;92
74458;SHT31;62896;51.032;3.712;2023-12-20T22:11:50;10.1;92
74458;SHT31;62896;51.032;3.712;2023-12-20T22:15:10;10.1;92
74458;SHT31;62896;51.032;3.712;2023-12-20T22:18:30;10.1;92
74458;SHT31;62896;51.032;3.712;2023-12-20T22:21:50;10.1;92
74458;SHT31;62896;51.032;3.712;2023-12-20T22:25:10;10.1;92
74458;SHT31;62896;51.032;3.712;2023-12-20T22:28:30;10.1;92
74458;SHT31;62896;51.032;3.712;2023-12-20T22:31:50;10.1;92
74458;SHT31;62896;51.032;3.712;2023-12-20T22:35:10;10.1;92
74458;SHT31;62896;51.032;3.712;2023-12-20T22:38:30;10.1;92
74458;SHT31;62896;51.032;3.712;2023-12-20T22:41:50;10.1;92
74458;SHT31;62896;51.032;3.712;2023-12-20T22:45:11;10.1;92
74458;SHT31;62896;51.032;3.712;2023-12-20T22:48:30;10.1;92
74458;SHT31;62896;51.032;3.712;2023-12-20T22:51:50;10.1;92